Time;durP1;ratioP1;P1;durP2;ratioP2;P2;SDS_P1;SDS_P2;PMS_P1;PMS_P2;Temp;Humidity;BMP_temperature;BMP_pressure;BME280_temperature;BME280_humidity;BME280_pressure;Samples;Min_cycle;Max_cycle;Signal;HPM_P1;HPM_P2
2021/03/16 00:00:16;;;;;;;43.65;29.98;;;;;;;4.91;82.10;98470.66;1701850;83;21283;-70
2021/03/16 00:03:02;;;;;;;43.97;30.37;;;;;;;4.84;82.00;98466.05;1677072;83;21655;-69
2021/03/16 00:05:33;;;;;;;47.50;31.25;;;;;;;4.84;82.00;98466.05;1667790;85;21558;-70
2021/03/16 00:08:01;;;;;;;45.28;30.17;;;;;;;4.82;82.28;98467.65;1701241;83;21166;-70
2021/03/16 00:10:28;;;;;;;47.15;30.50;;;;;;;4.92;81.88;98474.42;1683793;83;21981;-70
2021/03/16 00:12:57;;;;;;;50.12;31.70;;;;;;;4.90;81.93;98475.23;1712929;83;21267;-70
2021/03/16 00:15:24;;;;;;;53.50;33.00;;;;;;;4.84;82.02;98475.48;1700902;83;21196;-71
2021/03/16 00:17:54;;;;;;;49.18;31.65;;;;;;;4.79;82.14;98468.72;1705214;83;21149;-70
2021/03/16 00:20:22;;;;;;;49.20;32.25;;;;;;;4.84;81.89;98474.95;1697343;83;21185;-72
2021/03/16 00:22:50;;;;;;;49.63;31.73;;;;;;;4.82;81.77;98470.88;1714858;83;21177;-73
2021/03/16 00:25:17;;;;;;;48.28;30.40;;;;;;;4.73;82.01;98465.20;1718414;83;21753;-72
2021/03/16 00:27:46;;;;;;;50.10;32.98;;;;;;;4.65;82.17;98464.36;1720081;83;21151;-71
2021/03/16 00:30:15;;;;;;;49.05;32.25;;;;;;;4.68;82.09;98465.17;1715557;83;21156;-71
2021/03/16 00:32:43;;;;;;;44.65;30.08;;;;;;;4.75;81.76;98456.84;1711542;83;21157;-71
2021/03/16 00:35:12;;;;;;;50.60;33.80;;;;;;;;;;1715175;83;21200;-71
2021/03/16 00:37:40;;;;;;;46.40;31.12;;;;;;;4.54;82.21;98458.66;1721165;83;21145;-71
2021/03/16 00:40:10;;;;;;;50.43;31.65;;;;;;;4.53;82.17;98448.41;1700637;83;21173;-71
2021/03/16 00:42:37;;;;;;;52.35;35.58;;;;;;;4.58;81.94;98448.97;1713232;83;21172;-71
2021/03/16 00:45:07;;;;;;;52.13;35.03;;;;;;;4.48;82.18;98447.05;1707912;83;21682;-71
2021/03/16 00:47:34;;;;;;;52.70;35.63;;;;;;;4.39;82.40;98450.53;1713326;83;21161;-71
2021/03/16 00:50:07;;;;;;;50.92;35.43;;;;;;;4.39;82.46;98443.80;1685432;85;21148;-72
2021/03/16 00:52:35;;;;;;;55.58;35.30;;;;;;;4.40;82.37;98446.20;1714124;83;21498;-70
2021/03/16 00:55:05;;;;;;;52.88;34.13;;;;;;;4.33;82.73;98444.82;1712252;83;21190;-71
2021/03/16 00:57:32;;;;;;;48.85;33.13;;;;;;;4.28;82.81;98443.47;1681654;83;21112;-70
2021/03/16 01:00:00;;;;;;;51.68;34.48;;;;;;;4.31;82.81;98455.88;1699339;83;21571;-70
2021/03/16 01:02:29;;;;;;;54.08;35.30;;;;;;;4.40;82.67;98445.39;1705096;83;21330;-70
2021/03/16 01:04:59;;;;;;;55.55;37.03;;;;;;;4.36;82.57;98449.15;1719723;83;21148;-70
2021/03/16 01:07:26;;;;;;;54.73;35.92;;;;;;;4.25;82.82;98449.38;1707233;83;21573;-70
2021/03/16 01:09:54;;;;;;;51.05;34.27;;;;;;;4.27;82.89;98450.73;1710351;83;21344;-70
2021/03/16 01:12:21;;;;;;;51.28;33.75;;;;;;;4.34;82.53;98447.27;1685881;83;21169;-71
2021/03/16 01:14:49;;;;;;;55.67;35.30;;;;;;;4.27;82.72;98450.73;1697988;83;21199;-70
2021/03/16 01:17:17;;;;;;;52.75;34.90;;;;;;;4.18;82.95;98446.90;1721954;83;21596;-72
2021/03/16 01:19:45;;;;;;;48.73;32.00;;;;;;;4.22;82.82;98445.84;1720307;83;21176;-71
2021/03/16 01:22:13;;;;;;;53.08;34.05;;;;;;;4.29;82.69;98439.67;1716861;83;21295;-71
2021/03/16 01:24:41;;;;;;;50.30;33.98;;;;;;;4.20;82.89;98439.91;1698015;83;21604;-71
2021/03/16 01:27:09;;;;;;;47.58;31.68;;;;;;;4.11;83.21;98436.11;1694168;83;21167;-72
2021/03/16 01:29:36;;;;;;;46.60;30.75;;;;;;;4.12;83.19;98425.59;1684204;84;21153;-71
2021/03/16 01:32:06;;;;;;;50.83;33.53;;;;;;;4.15;83.08;98427.22;1682234;84;21173;-72
2021/03/16 01:34:33;;;;;;;46.75;31.05;;;;;;;4.06;83.44;98423.42;1683767;84;21345;-71
2021/03/16 01:37:01;;;;;;;41.95;29.45;;;;;;;4.03;83.56;98418.56;1697004;83;21193;-73
2021/03/16 01:39:31;;;;;;;46.55;31.00;;;;;;;4.14;83.15;98422.94;1677626;84;21157;-72
2021/03/16 01:41:58;;;;;;;45.00;30.60;;;;;;;4.12;82.96;98421.02;1691927;84;21173;-72
2021/03/16 01:44:26;;;;;;;49.67;31.82;;;;;;;3.85;83.22;98394.23;1680378;84;21149;-72
2021/03/16 01:46:55;;;;;;;43.90;29.40;;;;;;;3.97;83.40;98412.32;1653376;85;21634;-71
2021/03/16 01:49:22;;;;;;;40.08;28.35;;;;;;;4.07;83.12;98418.31;1666158;86;21731;-72
2021/03/16 01:51:50;;;;;;;40.40;29.18;;;;;;;4.11;82.93;98416.70;1692893;84;21172;-74
2021/03/16 01:54:17;;;;;;;45.78;29.95;;;;;;;4.05;82.96;98416.41;1708254;83;21110;-72
2021/03/16 01:56:45;;;;;;;45.40;29.98;;;;;;;3.98;83.10;98417.17;1682100;84;21172;-71
2021/03/16 01:59:31;;;;;;;45.17;29.12;;;;;;;4.01;82.97;98416.65;1665371;85;21616;-70
2021/03/16 02:02:17;;;;;;;38.53;26.95;;;;;;;4.04;82.75;98412.08;1647986;86;21775;-70
2021/03/16 02:05:09;;;;;;;44.33;26.97;;;;;;;3.94;82.97;98418.23;1685159;84;21165;-72
2021/03/16 02:08:42;;;;;;;41.70;27.95;;;;;;;3.95;82.79;98415.01;1695023;84;21315;-71
2021/03/16 02:11:49;;;;;;;38.53;27.07;;;;;;;3.93;82.83;98409.88;1682956;84;21118;-71
2021/03/16 02:14:46;;;;;;;40.30;27.02;;;;;;;3.82;83.20;98410.09;1687358;84;21141;-71
2021/03/16 02:17:34;;;;;;;38.90;26.35;;;;;;;3.90;82.93;98409.58;1685347;84;21308;-72
2021/03/16 02:21:12;;;;;;;39.75;26.48;;;;;;;3.91;82.74;98418.76;1702262;84;21311;-71
2021/03/16 02:24:09;;;;;;;36.60;25.32;;;;;;;3.84;82.92;98417.36;1698504;84;21177;-72
2021/03/16 02:27:10;;;;;;;39.67;26.75;;;;;;;3.87;82.85;98424.38;1691844;83;21553;-69
2021/03/16 02:29:58;;;;;;;37.28;25.92;;;;;;;3.82;82.98;98416.83;1675340;83;21725;-70
2021/03/16 02:32:46;;;;;;;40.48;27.37;;;;;;;3.82;82.98;98416.83;1699303;83;21953;-70
2021/03/16 02:35:32;;;;;;;37.53;24.45;;;;;;;3.74;82.76;98414.61;1704141;83;21161;-70
2021/03/16 02:38:22;;;;;;;35.48;24.40;;;;;;;3.81;82.37;98417.89;1720341;83;21145;-70
2021/03/16 02:41:08;;;;;;;35.20;24.52;;;;;;;3.78;82.20;98419.75;1715832;82;21169;-73
2021/03/16 02:43:54;;;;;;;34.50;25.15;;;;;;;3.66;82.42;98416.43;1706858;83;21208;-71
2021/03/16 02:46:42;;;;;;;33.23;24.60;;;;;;;3.59;82.57;98422.57;1715559;82;21292;-70
2021/03/16 02:49:29;;;;;;;34.43;24.50;;;;;;;3.69;82.28;98417.25;1701157;81;21145;-71
2021/03/16 02:52:15;;;;;;;34.35;25.02;;;;;;;3.64;82.25;98423.44;1667174;82;21275;-70
2021/03/16 02:55:03;;;;;;;33.80;24.83;;;;;;;3.53;82.42;98423.61;1713938;82;21181;-71
2021/03/16 02:57:49;;;;;;;;;;;;;;;3.56;82.25;98421.22;1713199;83;21735;-70
2021/03/16 03:00:35;;;;;;;34.80;25.00;;;;;;;3.58;82.07;98428.48;1696301;83;20161;-71
2021/03/16 03:03:22;;;;;;;37.38;26.40;;;;;;;3.41;82.49;98421.91;1708640;83;21270;-70
2021/03/16 03:06:11;;;;;;;36.33;24.85;;;;;;;3.33;82.61;98422.38;1709217;83;21173;-70
2021/03/16 03:08:58;;;;;;;35.73;23.57;;;;;;;3.37;82.39;98419.45;1722897;83;21194;-71
2021/03/16 03:11:43;;;;;;;34.95;24.82;;;;;;;3.42;82.07;98414.66;1685834;84;21192;-72
2021/03/16 03:14:31;;;;;;;34.65;24.57;;;;;;;3.29;82.40;98411.88;1716673;83;21185;-71
2021/03/16 03:17:17;;;;;;;31.68;22.45;;;;;;;3.19;82.63;98404.27;1678904;84;21636;-72
2021/03/16 03:20:08;;;;;;;31.57;22.65;;;;;;;3.25;82.35;98413.98;1680469;83;21165;-72
2021/03/16 03:23:11;;;;;;;27.37;18.90;;;;;;;3.23;82.33;98404.81;1673043;85;21176;-73
2021/03/16 03:26:03;;;;;;;33.65;22.17;;;;;;;3.14;82.68;98408.23;1708621;82;21153;-71
2021/03/16 03:28:49;;;;;;;31.37;21.30;;;;;;;3.18;82.54;98404.79;1695046;83;21707;-71
2021/03/16 03:31:34;;;;;;;31.73;22.25;;;;;;;3.20;82.39;98408.55;1696501;83;21181;-68
2021/03/16 03:34:21;;;;;;;35.73;23.50;;;;;;;3.13;82.58;98414.67;1699923;83;21170;-70
2021/03/16 03:37:07;;;;;;;30.57;22.50;;;;;;;3.08;82.67;98415.98;1720028;82;21339;-70
2021/03/16 03:39:53;;;;;;;28.80;21.25;;;;;;;3.19;82.23;98415.80;1714186;83;21659;-71
2021/03/16 03:42:39;;;;;;;31.62;20.88;;;;;;;3.20;82.05;98414.74;1719198;83;21204;-70
2021/03/16 03:45:26;;;;;;;32.05;22.13;;;;;;;3.07;82.20;98414.36;1713760;83;21195;-70
2021/03/16 03:48:13;;;;;;;29.02;21.35;;;;;;;2.99;82.41;98412.94;1722582;82;21287;-70
2021/03/16 03:50:59;;;;;;;30.43;20.90;;;;;;;3.06;82.14;98408.17;1701344;83;21271;-71
2021/03/16 03:53:46;;;;;;;34.27;22.93;;;;;;;2.95;82.25;98405.92;1701942;83;21178;-70
2021/03/16 03:56:34;;;;;;;30.82;21.73;;;;;;;2.88;82.46;98416.06;1715061;83;21196;-70
2021/03/16 04:01:19;;;;;;;30.27;20.62;;;;;;;3.04;82.10;98420.25;1771109;79;23380;-71
2021/03/16 04:04:05;;;;;;;31.48;21.87;;;;;;;2.89;82.30;98423.60;1722491;82;21213;-71
2021/03/16 04:06:52;;;;;;;31.10;21.60;;;;;;;2.84;82.33;98420.31;1727813;82;21165;-72
2021/03/16 04:09:38;;;;;;;31.55;22.10;;;;;;;2.79;82.05;98396.10;1738035;82;21187;-69
2021/03/16 04:12:24;;;;;;;33.00;22.00;;;;;;;2.95;81.81;98413.98;1746344;82;21164;-70
2021/03/16 04:15:12;;;;;;;35.05;24.57;;;;;;;2.89;81.98;98415.53;1734091;82;21133;-71
2021/03/16 04:17:58;;;;;;;30.57;21.90;;;;;;;2.82;82.10;98412.23;1739561;82;21106;-70
2021/03/16 04:20:44;;;;;;;30.80;23.22;;;;;;;2.92;81.74;98417.71;1749095;82;21310;-71
2021/03/16 04:23:32;;;;;;;33.05;23.95;;;;;;;2.95;81.47;98413.16;1731479;82;21482;-71
2021/03/16 04:26:18;;;;;;;33.20;23.25;;;;;;;2.88;81.63;98420.63;1747031;82;21672;-70
2021/03/16 04:29:04;;;;;;;34.73;23.15;;;;;;;2.81;81.74;98411.42;1746757;82;21349;-69
2021/03/16 04:31:50;;;;;;;30.05;21.90;;;;;;;2.88;81.45;98417.94;1736484;82;21538;-70
2021/03/16 04:34:36;;;;;;;34.65;22.35;;;;;;;2.94;81.16;98415.59;1725177;82;21201;-72
2021/03/16 04:37:22;;;;;;;35.20;22.62;;;;;;;2.89;81.30;98427.63;1735390;82;21171;-70
2021/03/16 04:40:10;;;;;;;29.10;20.10;;;;;;;2.82;81.42;98423.80;1742482;82;21178;-70
2021/03/16 04:42:57;;;;;;;30.27;22.22;;;;;;;2.88;81.16;98424.13;1745781;82;21141;-71
2021/03/16 04:45:43;;;;;;;33.13;23.45;;;;;;;2.89;80.99;98427.10;1723997;82;21165;-70
2021/03/16 04:48:31;;;;;;;33.85;23.22;;;;;;;2.77;81.24;98424.27;1737376;82;21170;-71
2021/03/16 04:51:17;;;;;;;30.20;22.07;;;;;;;2.79;81.14;98418.94;1741209;82;21283;-70
2021/03/16 04:54:03;;;;;;;29.80;22.17;;;;;;;2.82;81.01;98417.62;1734328;82;21194;-71
2021/03/16 04:56:49;;;;;;;35.63;22.62;;;;;;;2.74;81.18;98420.22;1706074;83;21743;-72
2021/03/16 04:59:35;;;;;;;30.97;21.68;;;;;;;2.72;81.18;98418.33;1725897;82;21205;-68
2021/03/16 05:02:21;;;;;;;31.90;21.23;;;;;;;2.85;80.82;98417.92;1743999;82;21145;-69
2021/03/16 05:05:09;;;;;;;34.25;21.50;;;;;;;2.81;80.82;98420.02;1724344;82;21550;-70
2021/03/16 05:07:55;;;;;;;32.08;21.87;;;;;;;2.76;80.93;98426.70;1732551;82;21148;-68
2021/03/16 05:10:43;;;;;;;;;;;;;;;2.79;80.79;98431.03;1726752;82;21521;-69
2021/03/16 05:13:31;;;;;;;31.10;21.65;;;;;;;2.91;80.08;98426.83;1723040;83;20188;-72
2021/03/16 05:16:17;;;;;;;29.70;20.55;;;;;;;2.82;80.29;98431.05;1734120;82;21561;-71
2021/03/16 05:19:03;;;;;;;28.92;20.20;;;;;;;2.75;80.12;98423.20;1747979;82;21610;-72
2021/03/16 05:21:50;;;;;;;29.10;19.02;;;;;;;2.76;79.75;98418.64;1743999;82;21306;-71
2021/03/16 05:24:36;;;;;;;33.65;21.02;;;;;;;2.90;79.16;98417.98;1723194;83;21240;-69
2021/03/16 05:27:22;;;;;;;33.48;21.07;;;;;;;2.87;79.01;98423.05;1729741;82;21181;-70
2021/03/16 05:30:09;;;;;;;29.50;20.72;;;;;;;2.83;78.88;98421.94;1740936;82;21135;-70
2021/03/16 05:32:58;;;;;;;26.23;18.80;;;;;;;2.91;78.64;98417.42;1733871;82;21299;-69
2021/03/16 05:35:46;;;;;;;28.52;20.12;;;;;;;3.03;78.16;98427.50;1723520;82;21604;-70
2021/03/16 05:38:32;;;;;;;28.35;19.90;;;;;;;2.97;78.28;98427.18;1723747;82;21194;-71
2021/03/16 05:41:18;;;;;;;27.48;18.57;;;;;;;2.91;78.27;98439.74;1742245;82;21695;-71
2021/03/16 05:44:05;;;;;;;28.17;18.40;;;;;;;3.05;78.02;98438.02;1723160;83;21295;-71
2021/03/16 05:46:50;;;;;;;29.98;19.30;;;;;;;3.17;77.77;98450.22;1717353;82;21145;-70
2021/03/16 05:49:36;;;;;;;28.00;18.90;;;;;;;3.13;77.93;98446.94;1743350;82;21157;-70
2021/03/16 05:52:22;;;;;;;27.82;18.00;;;;;;;3.16;78.04;98449.93;1750056;82;21597;-69
2021/03/16 05:55:10;;;;;;;27.30;18.73;;;;;;;3.33;77.14;98449.27;1747820;82;21372;-69
2021/03/16 05:57:56;;;;;;;29.75;19.85;;;;;;;3.46;77.04;98449.39;1735720;82;21157;-72
2021/03/16 06:00:42;;;;;;;27.10;18.75;;;;;;;3.44;77.05;98450.98;1723005;82;21150;-72
2021/03/16 06:03:28;;;;;;;29.25;18.87;;;;;;;3.40;76.80;98444.49;1734840;82;21601;-71
2021/03/16 06:06:14;;;;;;;28.57;18.17;;;;;;;3.51;76.33;98457.48;1724343;82;21303;-69
2021/03/16 06:09:01;;;;;;;;;;;;;;;3.57;75.41;98448.94;1720167;82;21142;-69
2021/03/16 06:11:49;;;;;;;31.57;18.12;;;;;;;3.54;75.46;98453.50;1736920;82;20166;-69
2021/03/16 06:14:36;;;;;;;27.17;18.17;;;;;;;3.49;75.56;98455.08;1732502;81;21256;-71
2021/03/16 06:17:22;;;;;;;27.32;18.32;;;;;;;3.61;75.20;98459.47;1720433;82;21149;-69
2021/03/16 06:20:11;;;;;;;31.07;19.30;;;;;;;3.74;75.28;98460.37;1712019;81;21331;-70
2021/03/16 06:23:07;;;;;;;32.40;19.80;;;;;;;3.71;74.48;98451.47;1692793;84;21150;-70
2021/03/16 06:25:54;;;;;;;32.88;18.02;;;;;;;3.75;75.05;98456.09;1713518;82;21150;-70
2021/03/16 06:28:41;;;;;;;33.90;19.27;;;;;;;3.93;74.38;98459.68;1739161;81;21574;-71
2021/03/16 06:31:27;;;;;;;33.53;20.32;;;;;;;4.08;74.34;98452.77;1715145;82;21205;-71
2021/03/16 06:34:22;;;;;;;32.15;20.75;;;;;;;4.01;74.34;98434.97;1709439;83;21154;-72
2021/03/16 06:37:08;;;;;;;30.12;19.50;;;;;;;4.01;74.62;98431.45;1709655;84;21660;-71
2021/03/16 06:39:57;;;;;;;28.77;19.12;;;;;;;4.15;73.78;98431.27;1709390;84;21327;-70
2021/03/16 06:42:41;;;;;;;32.98;20.92;;;;;;;4.21;73.48;98446.94;1709849;84;21604;-71
2021/03/16 06:45:33;;;;;;;38.23;21.90;;;;;;;4.15;73.57;98461.42;1718559;82;21191;-70
2021/03/16 06:48:23;;;;;;;36.73;22.95;;;;;;;4.09;74.12;98457.91;1738769;82;21134;-71
2021/03/16 06:51:13;;;;;;;34.10;20.70;;;;;;;4.17;74.28;98465.50;1738876;82;21178;-70
2021/03/16 06:54:17;;;;;;;35.65;20.95;;;;;;;4.37;72.97;98476.37;1738020;82;21102;-71
2021/03/16 06:57:06;;;;;;;35.52;22.07;;;;;;;4.36;73.34;98476.63;1709636;83;21764;-71
2021/03/16 06:59:52;;;;;;;35.50;20.43;;;;;;;4.34;72.75;98470.16;1710089;83;21343;-72
2021/03/16 07:02:38;;;;;;;34.03;20.40;;;;;;;4.19;72.75;98476.81;1722937;83;21176;-71
2021/03/16 07:05:29;;;;;;;34.00;20.77;;;;;;;4.29;72.98;98475.52;1722895;83;21177;-70
2021/03/16 07:08:15;;;;;;;36.88;20.68;;;;;;;4.44;73.29;98466.17;1722935;83;21223;-70
2021/03/16 07:11:03;;;;;;;34.03;20.75;;;;;;;4.46;73.34;98465.36;1720713;82;21157;-71
2021/03/16 07:13:50;;;;;;;33.85;20.08;;;;;;;4.49;73.04;98462.70;1722855;82;21178;-71
2021/03/16 07:16:36;;;;;;;31.45;19.32;;;;;;;4.58;72.65;98457.06;1742710;82;21726;-73
2021/03/16 07:19:22;;;;;;;28.00;18.95;;;;;;;4.81;72.54;98471.44;1750829;82;21185;-72
2021/03/16 07:22:08;;;;;;;30.80;19.98;;;;;;;4.90;72.14;98463.63;1723025;82;21678;-65
2021/03/16 07:24:54;;;;;;;28.83;18.90;;;;;;;5.06;72.59;98471.23;1700203;82;21149;-65
2021/03/16 07:27:40;;;;;;;30.62;19.00;;;;;;;5.11;70.61;98463.95;1750763;82;21134;-70
2021/03/16 07:30:27;;;;;;;28.95;18.60;;;;;;;5.23;70.44;98473.16;1744448;82;21210;-68
2021/03/16 07:33:13;;;;;;;32.40;19.80;;;;;;;5.22;69.56;98472.88;1723372;83;21211;-67
2021/03/16 07:35:59;;;;;;;29.07;18.52;;;;;;;5.10;69.96;98474.45;1729156;82;21648;-64
2021/03/16 07:38:47;;;;;;;33.50;19.48;;;;;;;5.06;70.62;98477.45;1723009;83;21177;-66
2021/03/16 07:41:36;;;;;;;37.40;19.65;;;;;;;5.15;71.22;98473.13;1710600;82;21156;-65
2021/03/16 07:44:22;;;;;;;34.53;19.30;;;;;;;5.54;70.78;98465.34;1741084;82;21263;-66
2021/03/16 07:47:09;;;;;;;31.62;19.07;;;;;;;5.78;69.61;98462.91;1750649;82;21185;-68
2021/03/16 07:50:05;;;;;;;37.55;21.15;;;;;;;5.94;69.61;98464.02;1723001;83;21148;-68
2021/03/16 07:52:51;;;;;;;36.08;21.77;;;;;;;6.15;68.16;98449.92;1723070;83;21674;-67
2021/03/16 07:55:37;;;;;;;32.85;18.80;;;;;;;6.25;68.22;98455.30;1722985;83;21143;-67
2021/03/16 07:58:26;;;;;;;33.53;18.55;;;;;;;6.51;67.42;98445.22;1744673;82;21165;-68
2021/03/16 08:01:13;;;;;;;32.40;19.30;;;;;;;6.71;67.12;98440.25;1745915;82;21593;-67
2021/03/16 08:04:10;;;;;;;34.25;19.15;;;;;;;6.72;65.80;98444.59;1717168;82;21709;-68
2021/03/16 08:07:04;;;;;;;34.98;19.90;;;;;;;6.76;65.95;98440.24;1709804;82;21193;-69
2021/03/16 08:09:55;;;;;;;33.35;18.15;;;;;;;6.84;66.07;98439.09;1710814;82;21319;-67
2021/03/16 08:12:41;;;;;;;31.15;18.65;;;;;;;7.04;64.36;98442.25;1720264;82;21181;-66
2021/03/16 08:15:27;;;;;;;31.55;18.10;;;;;;;7.08;64.59;98439.25;1737620;82;21207;-66
2021/03/16 08:18:30;;;;;;;31.05;19.17;;;;;;;7.15;66.12;98440.28;1709368;84;21170;-65
2021/03/16 08:21:16;;;;;;;30.90;18.82;;;;;;;7.21;64.77;98437.80;1709343;84;21340;-68
2021/03/16 08:24:14;;;;;;;28.12;17.90;;;;;;;7.29;66.00;98447.50;1709529;84;21769;-66
2021/03/16 08:27:01;;;;;;;33.02;19.90;;;;;;;7.54;64.35;98437.56;1718243;82;21153;-66
2021/03/16 08:29:49;;;;;;;27.98;18.67;;;;;;;7.69;63.40;98433.35;1727677;82;21130;-65
2021/03/16 08:32:36;;;;;;;28.90;17.80;;;;;;;7.75;64.07;98428.98;1714969;82;21205;-67
2021/03/16 08:35:23;;;;;;;30.90;18.77;;;;;;;7.88;63.84;98418.83;1710004;82;21296;-66
2021/03/16 08:38:08;;;;;;;30.60;18.55;;;;;;;8.04;63.04;98431.69;1692644;84;21271;-68
2021/03/16 08:41:18;;;;;;;25.40;19.15;;;;;;;8.14;62.06;98425.34;1722866;81;21328;-66
2021/03/16 08:44:04;;;;;;;28.40;18.57;;;;;;;8.20;62.41;98426.36;1744078;81;21197;-67
2021/03/16 08:46:50;;;;;;;28.75;18.55;;;;;;;8.01;61.89;98437.12;1715083;82;21180;-67
2021/03/16 08:49:39;;;;;;;31.10;17.87;;;;;;;8.06;63.08;98444.39;1709779;84;21365;-68
2021/03/16 08:52:28;;;;;;;26.50;16.75;;;;;;;8.17;62.82;98432.36;1726768;82;21118;-67
2021/03/16 08:55:29;;;;;;;27.87;16.57;;;;;;;8.27;62.24;98429.53;1738521;81;21700;-67
2021/03/16 08:58:16;;;;;;;26.33;17.50;;;;;;;8.28;61.73;98430.34;1711996;82;21573;-66
2021/03/16 09:01:03;;;;;;;32.17;19.27;;;;;;;8.18;60.87;98430.46;1720590;82;21197;-66
2021/03/16 09:03:51;;;;;;;27.75;18.12;;;;;;;8.19;62.67;98432.05;1709960;82;21211;-67
2021/03/16 09:06:38;;;;;;;22.48;16.07;;;;;;;8.37;62.85;98437.58;1705650;82;21139;-67
2021/03/16 09:09:26;;;;;;;25.92;16.25;;;;;;;8.68;60.40;98426.38;1745696;82;21272;-66
2021/03/16 09:12:13;;;;;;;27.05;16.80;;;;;;;8.74;60.83;98418.42;1719539;83;21209;-68
2021/03/16 09:15:09;;;;;;;29.98;17.12;;;;;;;8.67;59.95;98417.43;1737802;82;21165;-67
2021/03/16 09:18:01;;;;;;;26.95;17.82;;;;;;;8.64;59.17;98415.84;1725125;82;21145;-66
2021/03/16 09:20:47;;;;;;;28.57;17.40;;;;;;;8.72;60.22;98420.61;1717348;82;21171;-67
2021/03/16 09:23:32;;;;;;;28.87;17.80;;;;;;;8.82;60.54;98429.42;1739175;82;21638;-67
2021/03/16 09:26:25;;;;;;;32.83;18.65;;;;;;;8.91;59.52;98429.04;1731504;82;21311;-65
2021/03/16 09:29:12;;;;;;;27.02;17.82;;;;;;;8.96;60.29;98433.02;1747006;82;21169;-66
2021/03/16 09:31:59;;;;;;;30.40;18.12;;;;;;;9.03;59.83;98434.05;1723220;82;21149;-67
2021/03/16 09:34:46;;;;;;;27.73;16.42;;;;;;;9.05;58.55;98430.47;1735729;82;21219;-65
2021/03/16 09:37:46;;;;;;;26.57;16.48;;;;;;;9.16;60.45;98433.30;1728940;82;21569;-65
2021/03/16 09:40:38;;;;;;;25.85;16.52;;;;;;;9.23;57.93;98430.22;1750117;79;23157;-66
2021/03/16 09:43:22;;;;;;;29.23;17.77;;;;;;;9.14;58.48;98427.92;1719208;82;21199;-66
2021/03/16 09:45:57;;;;;;;27.90;16.48;;;;;;;9.06;59.66;98434.81;1718755;82;21208;-67
2021/03/16 09:48:26;;;;;;;23.25;15.30;;;;;;;9.01;59.33;98436.23;1746699;82;21223;-66
2021/03/16 09:50:54;;;;;;;23.10;16.90;;;;;;;8.88;60.06;98434.24;1750038;82;21597;-64
2021/03/16 09:53:21;;;;;;;26.77;15.78;;;;;;;8.71;60.56;98447.50;1749242;82;21227;-64
2021/03/16 09:56:00;;;;;;;34.65;20.32;;;;;;;8.72;60.41;98443.66;1748143;80;21160;-66
2021/03/16 09:58:29;;;;;;;28.15;17.45;;;;;;;8.68;60.11;98450.80;1742780;82;21188;-65
2021/03/16 10:00:57;;;;;;;28.45;17.05;;;;;;;8.57;60.69;98455.54;1741100;80;21576;-63
2021/03/16 10:03:25;;;;;;;26.07;15.90;;;;;;;8.66;61.54;98454.33;1704235;81;21282;-65
2021/03/16 10:06:07;;;;;;;26.25;16.97;;;;;;;8.76;61.33;98455.55;1692013;81;21592;-66
2021/03/16 10:08:35;;;;;;;27.17;18.12;;;;;;;8.88;60.69;98446.45;1663695;85;21235;-66
2021/03/16 10:11:05;;;;;;;28.75;17.37;;;;;;;9.01;59.83;98447.08;1693897;84;21181;-66
2021/03/16 10:13:39;;;;;;;30.43;17.50;;;;;;;9.12;60.08;98450.47;1688251;84;21230;-64
2021/03/16 10:16:11;;;;;;;24.45;16.55;;;;;;;9.22;59.84;98451.13;1678581;84;21314;-66
2021/03/16 10:19:04;;;;;;;25.37;16.73;;;;;;;9.27;60.27;98445.63;1683235;84;21164;-67
2021/03/16 10:21:35;;;;;;;27.95;16.97;;;;;;;9.19;59.16;98446.28;1717767;83;21295;-65
2021/03/16 10:24:05;;;;;;;28.35;16.75;;;;;;;9.14;60.37;98446.34;1708540;83;21557;-65
2021/03/16 10:29:13;;;;;;;26.93;18.25;;;;;;;9.24;60.40;98442.70;1786478;79;28281;-65
2021/03/16 10:31:41;;;;;;;27.15;17.60;;;;;;;9.44;60.19;98438.31;1733896;82;21293;-65
2021/03/16 10:34:09;;;;;;;23.32;16.65;;;;;;;9.50;59.70;98444.72;1732126;80;21615;-67
2021/03/16 10:36:37;;;;;;;25.70;17.40;;;;;;;9.35;60.06;98444.16;1739938;82;21283;-66
2021/03/16 10:39:06;;;;;;;24.15;16.25;;;;;;;9.23;60.37;98451.94;1735643;82;21180;-66
2021/03/16 10:41:34;;;;;;;25.43;16.67;;;;;;;9.20;60.76;98449.81;1704714;82;21168;-66
2021/03/16 10:44:03;;;;;;;25.50;16.02;;;;;;;9.15;61.06;98445.80;1740834;82;21182;-66
2021/03/16 10:46:31;;;;;;;24.77;17.12;;;;;;;9.08;60.84;98440.74;1718389;83;21169;-65
2021/03/16 10:48:59;;;;;;;26.37;16.60;;;;;;;8.91;60.92;98434.47;1750517;82;21140;-66
2021/03/16 10:51:27;;;;;;;24.15;16.82;;;;;;;8.93;61.27;98431.45;1752354;82;21172;-66
2021/03/16 10:53:54;;;;;;;26.80;17.05;;;;;;;8.82;61.71;98424.56;1755854;82;21306;-65
2021/03/16 10:56:22;;;;;;;24.87;17.27;;;;;;;8.75;62.34;98422.19;1756225;82;21580;-66
2021/03/16 10:58:50;;;;;;;23.38;17.27;;;;;;;8.71;62.69;98415.75;1753776;81;21160;-66
2021/03/16 11:01:18;;;;;;;23.50;17.82;;;;;;;8.69;62.49;98416.58;1744989;80;21138;-67
2021/03/16 11:03:45;;;;;;;26.00;17.35;;;;;;;8.57;62.39;98418.92;1724571;83;21196;-66
2021/03/16 11:06:13;;;;;;;22.05;17.23;;;;;;;8.50;62.24;98427.95;1730181;82;21619;-66
2021/03/16 11:08:40;;;;;;;26.35;17.98;;;;;;;8.39;62.40;98423.75;1731675;82;21327;-65
2021/03/16 11:11:08;;;;;;;24.40;17.32;;;;;;;8.42;62.80;98420.45;1737853;82;21165;-65
2021/03/16 11:13:36;;;;;;;27.60;19.15;;;;;;;8.39;63.10;98416.97;1724463;83;21169;-66
2021/03/16 11:16:05;;;;;;;21.90;17.02;;;;;;;8.31;62.72;98405.39;1728181;82;21159;-67
2021/03/16 11:18:33;;;;;;;35.70;23.75;;;;;;;8.24;63.40;98408.42;1741005;82;21149;-67
2021/03/16 11:21:00;;;;;;;30.30;22.37;;;;;;;8.24;63.48;98413.84;1735568;82;21579;-66
2021/03/16 11:23:28;;;;;;;29.98;22.67;;;;;;;8.29;63.05;98408.95;1753766;80;21168;-68
2021/03/16 11:25:56;;;;;;;32.23;23.45;;;;;;;8.38;63.59;98415.34;1756212;82;21608;-66
2021/03/16 11:28:24;;;;;;;29.80;22.98;;;;;;;8.58;62.35;98408.30;1744981;82;21282;-66
2021/03/16 11:30:52;;;;;;;30.17;22.35;;;;;;;8.71;63.15;98412.23;1720490;82;21152;-69
2021/03/16 11:33:20;;;;;;;30.35;23.57;;;;;;;8.79;63.29;98412.37;1721472;83;21769;-65
2021/03/16 11:36:06;;;;;;;32.58;23.77;;;;;;;8.87;63.09;98402.77;1721309;82;21309;-66
2021/03/16 11:38:52;;;;;;;34.53;23.40;;;;;;;8.96;62.69;98409.17;1742997;82;21322;-66
2021/03/16 11:41:38;;;;;;;35.55;22.45;;;;;;;9.06;62.48;98417.72;1729330;82;21143;-65
2021/03/16 11:44:25;;;;;;;29.75;21.68;;;;;;;9.09;61.54;98411.14;1729698;82;21194;-65
2021/03/16 11:47:10;;;;;;;29.67;21.20;;;;;;;9.08;61.66;98406.81;1734002;82;21581;-65
2021/03/16 11:49:57;;;;;;;26.83;18.73;;;;;;;9.11;62.34;98402.69;1719729;82;21279;-66
2021/03/16 11:52:43;;;;;;;27.13;17.87;;;;;;;9.34;61.62;98401.27;1721908;82;21187;-68
2021/03/16 11:55:30;;;;;;;27.85;17.70;;;;;;;9.49;61.39;98398.28;1749151;82;21472;-66
2021/03/16 11:58:16;;;;;;;26.77;18.42;;;;;;;9.52;59.39;98400.16;1733997;82;21157;-68
2021/03/16 12:01:02;;;;;;;29.27;19.85;;;;;;;9.44;59.01;98396.20;1738798;82;21156;-67
2021/03/16 12:03:48;;;;;;;26.65;19.67;;;;;;;9.27;59.57;98397.30;1750821;80;21659;-68
2021/03/16 12:06:35;;;;;;;32.10;20.45;;;;;;;9.08;61.04;98390.52;1738395;82;21179;-65
2021/03/16 12:09:21;;;;;;;31.23;21.50;;;;;;;8.94;61.53;98396.42;1738856;82;21161;-65
2021/03/16 12:12:09;;;;;;;29.27;20.05;;;;;;;8.98;61.94;98402.34;1743062;82;21144;-66
2021/03/16 12:14:55;;;;;;;31.90;20.00;;;;;;;9.04;61.31;98390.03;1734063;82;21202;-67
2021/03/16 12:17:41;;;;;;;31.33;20.88;;;;;;;9.03;60.84;98399.30;1727287;82;21196;-66
2021/03/16 12:20:28;;;;;;;29.60;19.10;;;;;;;8.93;61.11;98396.16;1730927;80;21327;-67
2021/03/16 12:23:15;;;;;;;31.37;20.43;;;;;;;8.81;61.72;98393.09;1721370;82;21315;-68
2021/03/16 12:26:01;;;;;;;29.72;20.52;;;;;;;8.73;61.67;98404.59;1747460;82;21149;-66
2021/03/16 12:28:47;;;;;;;33.00;21.60;;;;;;;8.66;62.00;98399.53;1746549;82;21719;-67
2021/03/16 12:31:34;;;;;;;30.27;20.77;;;;;;;8.60;62.69;98396.63;1748348;82;21200;-66
2021/03/16 12:34:20;;;;;;;29.05;19.75;;;;;;;8.80;62.23;98394.19;1727925;82;21182;-65
2021/03/16 12:37:07;;;;;;;26.48;19.12;;;;;;;8.94;61.52;98399.14;1727815;82;21730;-66
2021/03/16 12:39:52;;;;;;;33.38;22.07;;;;;;;8.89;61.39;98401.95;1719642;83;21617;-67